Aviation Digital Data Service (ADDS)

Output produced by METARs form (1620 UTC 30 October 2020)
found at http://www.aviationweather.gov/metar/data/
 
KGSP 301553Z 32012G19KT 10SM CLR 16/04 A3007 RMK AO2 SLP176 T01610039
KGSP 301131Z 3012/3112 33010G18KT P6SM SKC 
     FM302000 36010KT P6SM SKC 
     FM310200 03006KT P6SM SKC